Back to Top

Language: 

My Weather Underground Personal Weather Station Historical Data with Graphs...

Delerius Weather Station Historical Data
Daily Summary for March 27, 2017 Units:  English    Metric   Both
« Previous Day
Next Day »
Daily Weekly Monthly Yearly Custom
  High: Low: Average:
Temperature: 53.8 °F 42.8 °F 46.1 °F
Dew Point: 45.0 °F 39.1 °F 41.3 °F
Humidity: 89 % 69 % 84 %
Wind Speed: 7.0 mph 0.0 mph 3 mph
Wind Gust: 14.0 mph - -
Wind:- - East
Pressure: 30.32 in 30.14 in -
Precipitation: 0.00 in    
Historical Graphs
 
 
Tabular Data for March 27, 2017
Time Temperature Dew Point Pressure Wind Wind Speed Wind Gust Humidity Rainfall Rate (Hourly) solar Conditions
00:01 44.1 °F 40.4 °F 30.32 in ESE 6.0 mph 12.0 mph 87 % 0.00 in 0 W/m2
00:06 44.2 °F 40.6 °F 30.32 in ESE 6.0 mph 12.0 mph 87 % 0.00 in 0 W/m2
00:11 44.2 °F 40.6 °F 30.32 in ESE 6.0 mph 11.0 mph 87 % 0.00 in 0 W/m2
00:16 44.2 °F 40.6 °F 30.32 in ESE 5.0 mph 10.0 mph 87 % 0.00 in 0 W/m2
00:21 44.2 °F 40.6 °F 30.32 in ESE 6.0 mph 12.0 mph 87 % 0.00 in 0 W/m2
00:26 44.2 °F 40.6 °F 30.32 in ESE 7.0 mph 12.0 mph 87 % 0.00 in 0 W/m2
00:31 44.2 °F 40.6 °F 30.32 in ESE 5.0 mph 11.0 mph 87 % 0.00 in 0 W/m2
00:36 44.2 °F 40.6 °F 30.32 in ESE 5.0 mph 9.0 mph 87 % 0.00 in 0 W/m2
00:41 44.2 °F 40.6 °F 30.32 in SE 5.0 mph 9.0 mph 87 % 0.00 in 0 W/m2
00:46 44.2 °F 40.6 °F 30.32 in ESE 6.0 mph 10.0 mph 87 % 0.00 in 0 W/m2
00:51 44.2 °F 40.6 °F 30.32 in ESE 7.0 mph 10.0 mph 87 % 0.00 in 0 W/m2
00:56 44.2 °F 40.6 °F 30.32 in ESE 6.0 mph 11.0 mph 87 % 0.00 in 0 W/m2
01:01 44.2 °F 40.6 °F 30.32 in ESE 6.0 mph 11.0 mph 87 % 0.00 in 0 W/m2
01:06 44.2 °F 40.6 °F 30.32 in ESE 5.0 mph 10.0 mph 87 % 0.00 in 0 W/m2
01:11 44.2 °F 40.6 °F 30.32 in ESE 4.0 mph 8.0 mph 87 % 0.00 in 0 W/m2
01:16 44.4 °F 40.8 °F 30.32 in ESE 3.0 mph 8.0 mph 87 % 0.00 in 0 W/m2
01:21 44.4 °F 40.8 °F 30.32 in SE 3.0 mph 8.0 mph 87 % 0.00 in 0 W/m2
01:26 44.2 °F 40.6 °F 30.32 in ESE 4.0 mph 6.0 mph 87 % 0.00 in 0 W/m2
01:31 44.2 °F 40.6 °F 30.32 in ESE 3.0 mph 5.0 mph 87 % 0.00 in 0 W/m2
01:36 44.2 °F 40.6 °F 30.31 in ESE 2.0 mph 5.0 mph 87 % 0.00 in 0 W/m2
01:41 44.2 °F 40.6 °F 30.31 in ESE 2.0 mph 5.0 mph 87 % 0.00 in 0 W/m2
01:46 44.2 °F 40.9 °F 30.31 in ESE 2.0 mph 5.0 mph 88 % 0.00 in 0 W/m2
01:51 44.2 °F 40.6 °F 30.31 in ESE 3.0 mph 7.0 mph 87 % 0.00 in 0 W/m2
01:56 44.2 °F 40.6 °F 30.31 in ESE 3.0 mph 7.0 mph 87 % 0.00 in 0 W/m2
02:02 44.2 °F 40.9 °F 30.31 in ESE 2.0 mph 7.0 mph 88 % 0.00 in 0 W/m2
02:06 44.2 °F 40.6 °F 30.31 in East 1.0 mph 4.0 mph 87 % 0.00 in 0 W/m2
02:12 44.1 °F 40.4 °F 30.30 in East 1.0 mph 5.0 mph 87 % 0.00 in 0 W/m2
02:17 44.1 °F 40.7 °F 30.30 in East 2.0 mph 5.0 mph 88 % 0.00 in 0 W/m2
02:22 43.9 °F 40.6 °F 30.30 in East 2.0 mph 7.0 mph 88 % 0.00 in 0 W/m2
02:27 43.9 °F 40.6 °F 30.30 in East 2.0 mph 7.0 mph 88 % 0.00 in 0 W/m2
02:32 43.7 °F 40.4 °F 30.30 in East 2.0 mph 6.0 mph 88 % 0.00 in 0 W/m2
02:37 43.5 °F 40.2 °F 30.29 in ENE 2.0 mph 6.0 mph 88 % 0.00 in 0 W/m2
02:42 43.5 °F 40.2 °F 30.29 in ENE 2.0 mph 7.0 mph 88 % 0.00 in 0 W/m2
02:47 43.5 °F 40.2 °F 30.29 in ENE 2.0 mph 7.0 mph 88 % 0.00 in 0 W/m2
02:52 43.5 °F 40.2 °F 30.29 in ENE 2.0 mph 6.0 mph 88 % 0.00 in 0 W/m2
02:57 43.5 °F 40.2 °F 30.29 in East 1.0 mph 5.0 mph 88 % 0.00 in 0 W/m2
03:02 43.3 °F 40.0 °F 30.29 in East 2.0 mph 6.0 mph 88 % 0.00 in 0 W/m2
03:07 43.3 °F 40.3 °F 30.29 in ENE 2.0 mph 6.0 mph 89 % 0.00 in 0 W/m2
03:12 43.3 °F 40.3 °F 30.29 in ENE 2.0 mph 6.0 mph 89 % 0.00 in 0 W/m2
03:17 43.3 °F 40.0 °F 30.29 in ENE 3.0 mph 7.0 mph 88 % 0.00 in 0 W/m2
03:22 43.3 °F 40.0 °F 30.28 in ENE 3.0 mph 7.0 mph 88 % 0.00 in 0 W/m2
03:27 43.3 °F 40.0 °F 30.29 in ENE 2.0 mph 7.0 mph 88 % 0.00 in 0 W/m2
03:32 43.3 °F 40.0 °F 30.29 in East 1.0 mph 5.0 mph 88 % 0.00 in 0 W/m2
03:37 43.3 °F 40.0 °F 30.28 in East 2.0 mph 8.0 mph 88 % 0.00 in 0 W/m2
03:42 43.3 °F 40.0 °F 30.28 in East 3.0 mph 9.0 mph 88 % 0.00 in 0 W/m2
03:47 43.3 °F 40.0 °F 30.28 in ENE 2.0 mph 9.0 mph 88 % 0.00 in 0 W/m2
03:52 43.3 °F 40.0 °F 30.28 in East 1.0 mph 4.0 mph 88 % 0.00 in 0 W/m2
03:57 43.3 °F 40.0 °F 30.28 in Calm   5.0 mph 88 % 0.00 in 0 W/m2
04:02 43.3 °F 40.0 °F 30.28 in ENE 2.0 mph 5.0 mph 88 % 0.00 in 0 W/m2
04:07 43.2 °F 39.8 °F 30.27 in ENE 3.0 mph 6.0 mph 88 % 0.00 in 0 W/m2
04:12 43.2 °F 39.8 °F 30.28 in ENE 3.0 mph 6.0 mph 88 % 0.00 in 0 W/m2
04:17 43.2 °F 39.6 °F 30.28 in East 2.0 mph 6.0 mph 87 % 0.00 in 0 W/m2
04:22 43.2 °F 39.6 °F 30.27 in ESE 1.0 mph 5.0 mph 87 % 0.00 in 0 W/m2
04:27 43.2 °F 39.6 °F 30.28 in East 1.0 mph 5.0 mph 87 % 0.00 in 0 W/m2
04:32 43.2 °F 39.6 °F 30.28 in ENE 1.0 mph 6.0 mph 87 % 0.00 in 0 W/m2
04:37 43.2 °F 39.6 °F 30.27 in ENE 2.0 mph 7.0 mph 87 % 0.00 in 0 W/m2
04:42 43.2 °F 39.6 °F 30.27 in ENE 1.0 mph 7.0 mph 87 % 0.00 in 0 W/m2
04:48 43.2 °F 39.6 °F 30.27 in ENE 1.0 mph 5.0 mph 87 % 0.00 in 0 W/m2
04:53 43.2 °F 39.6 °F 30.27 in ENE 1.0 mph 6.0 mph 87 % 0.00 in 0 W/m2
04:58 43.2 °F 39.6 °F 30.27 in ENE 1.0 mph 6.0 mph 87 % 0.00 in 0 W/m2
05:03 43.0 °F 39.4 °F 30.27 in East 1.0 mph 5.0 mph 87 % 0.00 in 0 W/m2
05:08 43.0 °F 39.4 °F 30.27 in East 1.0 mph 5.0 mph 87 % 0.00 in 0 W/m2
05:13 43.0 °F 39.4 °F 30.27 in East 1.0 mph 5.0 mph 87 % 0.00 in 0 W/m2
05:18 43.0 °F 39.4 °F 30.26 in East 1.0 mph 6.0 mph 87 % 0.00 in 0 W/m2
05:23 43.0 °F 39.4 °F 30.27 in East 2.0 mph 6.0 mph 87 % 0.00 in 0 W/m2
05:28 43.0 °F 39.4 °F 30.27 in East 1.0 mph 5.0 mph 87 % 0.00 in 0 W/m2
05:33 43.0 °F 39.4 °F 30.26 in ENE 1.0 mph 5.0 mph 87 % 0.00 in 0 W/m2
05:38 43.0 °F 39.4 °F 30.26 in ENE 3.0 mph 7.0 mph 87 % 0.00 in 0 W/m2
05:43 43.0 °F 39.4 °F 30.26 in ENE 4.0 mph 7.0 mph 87 % 0.00 in 0 W/m2
05:48 42.8 °F 39.2 °F 30.27 in ENE 3.0 mph 7.0 mph 87 % 0.00 in 0 W/m2
05:53 42.8 °F 39.2 °F 30.27 in ENE 2.0 mph 5.0 mph 87 % 0.00 in 0 W/m2
05:58 42.8 °F 39.2 °F 30.27 in ENE 1.0 mph 5.0 mph 87 % 0.00 in 0 W/m2
06:03 43.0 °F 39.4 °F 30.27 in ENE 1.0 mph 6.0 mph 87 % 0.00 in 0 W/m2
06:08 43.0 °F 39.4 °F 30.27 in ENE 2.0 mph 6.0 mph 87 % 0.00 in 0 W/m2
06:13 43.0 °F 39.4 °F 30.27 in ENE 1.0 mph 5.0 mph 87 % 0.00 in 0 W/m2
06:18 43.0 °F 39.4 °F 30.27 in Calm   1.0 mph 87 % 0.00 in 0 W/m2
06:23 43.0 °F 39.4 °F 30.27 in Calm   2.0 mph 87 % 0.00 in 0 W/m2
06:28 43.0 °F 39.4 °F 30.28 in Calm   5.0 mph 87 % 0.00 in 0 W/m2
06:33 43.0 °F 39.4 °F 30.27 in Calm   5.0 mph 87 % 0.00 in 0 W/m2
06:38 43.0 °F 39.4 °F 30.27 in Calm   3.0 mph 87 % 0.00 in 0 W/m2
06:43 43.0 °F 39.4 °F 30.27 in Calm   4.0 mph 87 % 0.00 in 0 W/m2
06:48 43.0 °F 39.4 °F 30.27 in Calm   4.0 mph 87 % 0.00 in 0 W/m2
06:53 43.0 °F 39.7 °F 30.27 in ENE 1.0 mph 6.0 mph 88 % 0.00 in 0 W/m2
06:58 43.0 °F 39.4 °F 30.27 in ENE 2.0 mph 6.0 mph 87 % 0.00 in 0 W/m2
07:03 43.0 °F 39.4 °F 30.27 in ENE 2.0 mph 6.0 mph 87 % 0.00 in 5 W/m2
07:08 43.0 °F 39.4 °F 30.27 in ENE 3.0 mph 6.0 mph 87 % 0.00 in 5 W/m2
07:13 43.0 °F 39.4 °F 30.27 in NE 3.0 mph 6.0 mph 87 % 0.00 in 9 W/m2
07:18 43.0 °F 39.7 °F 30.27 in NE 2.0 mph 6.0 mph 88 % 0.00 in 9 W/m2
07:20 43.0 °F 39.7 °F 30.27 in NE 2.0 mph 5.0 mph 88 % 0.00 in 11 W/m2
07:25 43.0 °F 39.7 °F 30.27 in NE 1.0 mph 6.0 mph 88 % 0.00 in 12 W/m2
07:30 43.0 °F 39.7 °F 30.27 in NE 1.0 mph 6.0 mph 88 % 0.00 in 14 W/m2
07:35 43.0 °F 39.7 °F 30.26 in NE 1.0 mph 6.0 mph 88 % 0.00 in 16 W/m2
07:40 43.0 °F 39.4 °F 30.27 in ENE 1.0 mph 6.0 mph 87 % 0.00 in 23 W/m2
07:45 43.0 °F 39.4 °F 30.27 in ENE 1.0 mph 5.0 mph 87 % 0.00 in 23 W/m2
07:50 43.0 °F 39.4 °F 30.27 in ENE 1.0 mph 4.0 mph 87 % 0.00 in 25 W/m2
07:55 43.0 °F 39.4 °F 30.27 in ENE 1.0 mph 4.0 mph 87 % 0.00 in 26 W/m2
08:00 43.0 °F 39.4 °F 30.27 in ENE 1.0 mph 4.0 mph 87 % 0.00 in 32 W/m2
08:05 43.0 °F 39.4 °F 30.27 in NE 2.0 mph 7.0 mph 87 % 0.00 in 44 W/m2
08:10 43.0 °F 39.4 °F 30.27 in NE 3.0 mph 7.0 mph 87 % 0.00 in 46 W/m2
08:15 43.0 °F 39.4 °F 30.27 in ENE 2.0 mph 7.0 mph 87 % 0.00 in 49 W/m2
08:20 43.0 °F 39.1 °F 30.27 in ENE 2.0 mph 7.0 mph 86 % 0.00 in 46 W/m2
08:25 43.2 °F 39.3 °F 30.27 in ENE 2.0 mph 6.0 mph 86 % 0.00 in 42 W/m2
08:30 43.2 °F 39.6 °F 30.27 in ENE 2.0 mph 6.0 mph 87 % 0.00 in 42 W/m2
08:35 43.2 °F 39.3 °F 30.27 in ENE 2.0 mph 6.0 mph 86 % 0.00 in 44 W/m2
08:40 43.2 °F 39.3 °F 30.27 in ENE 2.0 mph 6.0 mph 86 % 0.00 in 53 W/m2
08:45 43.2 °F 39.3 °F 30.27 in ENE 2.0 mph 6.0 mph 86 % 0.00 in 62 W/m2
08:50 43.2 °F 39.3 °F 30.27 in ENE 2.0 mph 6.0 mph 86 % 0.00 in 53 W/m2
08:55 43.3 °F 39.4 °F 30.27 in ENE 2.0 mph 5.0 mph 86 % 0.00 in 63 W/m2
09:00 43.3 °F 39.4 °F 30.27 in ENE 1.0 mph 6.0 mph 86 % 0.00 in 60 W/m2
09:05 43.5 °F 39.6 °F 30.27 in East 2.0 mph 6.0 mph 86 % 0.00 in 56 W/m2
09:11 43.5 °F 39.6 °F 30.27 in ENE 2.0 mph 7.0 mph 86 % 0.00 in 60 W/m2
09:16 43.5 °F 39.6 °F 30.27 in ENE 2.0 mph 9.0 mph 86 % 0.00 in 67 W/m2
09:21 43.5 °F 39.3 °F 30.27 in East 3.0 mph 9.0 mph 85 % 0.00 in 67 W/m2
09:26 43.7 °F 39.5 °F 30.27 in East 2.0 mph 8.0 mph 85 % 0.00 in 70 W/m2
09:31 43.9 °F 39.7 °F 30.27 in ESE 2.0 mph 6.0 mph 85 % 0.00 in 77 W/m2
09:36 43.9 °F 39.7 °F 30.27 in ESE 2.0 mph 6.0 mph 85 % 0.00 in 86 W/m2
09:41 43.9 °F 39.7 °F 30.27 in East 2.0 mph 6.0 mph 85 % 0.00 in 88 W/m2
09:46 43.9 °F 39.7 °F 30.27 in East 2.0 mph 6.0 mph 85 % 0.00 in 102 W/m2
09:51 44.1 °F 39.8 °F 30.27 in East 1.0 mph 5.0 mph 85 % 0.00 in 102 W/m2
09:56 44.1 °F 39.8 °F 30.27 in ESE 1.0 mph 6.0 mph 85 % 0.00 in 120 W/m2
10:01 44.2 °F 39.7 °F 30.27 in East 2.0 mph 9.0 mph 84 % 0.00 in 155 W/m2
10:06 44.4 °F 39.6 °F 30.27 in East 3.0 mph 9.0 mph 83 % 0.00 in 163 W/m2
10:11 44.4 °F 39.6 °F 30.27 in East 3.0 mph 8.0 mph 83 % 0.00 in 127 W/m2
10:16 44.4 °F 39.9 °F 30.27 in ENE 4.0 mph 9.0 mph 84 % 0.00 in 120 W/m2
10:21 44.4 °F 39.9 °F 30.27 in NE 4.0 mph 9.0 mph 84 % 0.00 in 128 W/m2
10:26 44.4 °F 39.9 °F 30.27 in ENE 3.0 mph 8.0 mph 84 % 0.00 in 141 W/m2
10:31 44.6 °F 40.1 °F 30.26 in East 3.0 mph 8.0 mph 84 % 0.00 in 146 W/m2
10:36 44.8 °F 40.2 °F 30.27 in ESE 3.0 mph 7.0 mph 84 % 0.00 in 137 W/m2
10:41 44.8 °F 39.9 °F 30.27 in ESE 3.0 mph 8.0 mph 83 % 0.00 in 137 W/m2
10:46 44.8 °F 39.9 °F 30.27 in East 3.0 mph 8.0 mph 83 % 0.00 in 135 W/m2
10:51 44.8 °F 39.9 °F 30.27 in ENE 3.0 mph 7.0 mph 83 % 0.00 in 142 W/m2
10:56 44.8 °F 39.9 °F 30.26 in ENE 3.0 mph 7.0 mph 83 % 0.00 in 149 W/m2
11:01 44.8 °F 39.9 °F 30.26 in ENE 4.0 mph 8.0 mph 83 % 0.00 in 148 W/m2
11:06 45.0 °F 40.4 °F 30.26 in ENE 4.0 mph 8.0 mph 84 % 0.00 in 146 W/m2
11:11 45.0 °F 40.4 °F 30.26 in ENE 3.0 mph 8.0 mph 84 % 0.00 in 146 W/m2
11:16 45.1 °F 40.3 °F 30.26 in East 2.0 mph 8.0 mph 83 % 0.00 in 156 W/m2
11:21 45.3 °F 40.5 °F 30.26 in ENE 2.0 mph 8.0 mph 83 % 0.00 in 153 W/m2
11:26 45.3 °F 40.5 °F 30.26 in East 3.0 mph 8.0 mph 83 % 0.00 in 163 W/m2
11:31 45.3 °F 40.5 °F 30.26 in East 3.0 mph 8.0 mph 83 % 0.00 in 176 W/m2
11:36 45.5 °F 40.6 °F 30.26 in East 3.0 mph 7.0 mph 83 % 0.00 in 176 W/m2
11:41 45.7 °F 40.5 °F 30.26 in ENE 3.0 mph 7.0 mph 82 % 0.00 in 172 W/m2
11:46 45.7 °F 40.5 °F 30.26 in East 3.0 mph 6.0 mph 82 % 0.00 in 165 W/m2
11:51 45.9 °F 40.7 °F 30.26 in SE 1.0 mph 6.0 mph 82 % 0.00 in 179 W/m2
11:56 46.0 °F 40.9 °F 30.26 in ESE 1.0 mph 7.0 mph 82 % 0.00 in 200 W/m2
12:01 46.0 °F 40.5 °F 30.26 in ESE 3.0 mph 8.0 mph 81 % 0.00 in 200 W/m2
12:06 46.0 °F 40.5 °F 30.26 in ESE 3.0 mph 8.0 mph 81 % 0.00 in 206 W/m2
12:11 46.2 °F 40.7 °F 30.25 in ESE 3.0 mph 7.0 mph 81 % 0.00 in 202 W/m2
12:16 46.2 °F 40.7 °F 30.25 in ESE 3.0 mph 8.0 mph 81 % 0.00 in 216 W/m2
12:21 46.4 °F 40.9 °F 30.25 in ESE 3.0 mph 9.0 mph 81 % 0.00 in 232 W/m2
12:26 46.8 °F 41.2 °F 30.25 in SE 3.0 mph 9.0 mph 81 % 0.00 in 206 W/m2
12:31 46.9 °F 41.4 °F 30.25 in SE 3.0 mph 7.0 mph 81 % 0.00 in 197 W/m2
12:37 46.9 °F 41.1 °F 30.24 in SE 2.0 mph 7.0 mph 80 % 0.00 in 202 W/m2
12:42 47.1 °F 41.6 °F 30.24 in ESE 3.0 mph 7.0 mph 81 % 0.00 in 199 W/m2
12:47 47.3 °F 41.8 °F 30.24 in East 4.0 mph 8.0 mph 81 % 0.00 in 204 W/m2
12:52 47.3 °F 41.4 °F 30.24 in ESE 3.0 mph 8.0 mph 80 % 0.00 in 206 W/m2
12:57 47.3 °F 41.4 °F 30.24 in ESE 3.0 mph 8.0 mph 80 % 0.00 in 218 W/m2
13:02 47.5 °F 41.6 °F 30.24 in SE 4.0 mph 11.0 mph 80 % 0.00 in 257 W/m2
13:07 47.1 °F 41.3 °F 30.24 in SSE 5.0 mph 11.0 mph 80 % 0.00 in 251 W/m2
13:12 46.9 °F 41.1 °F 30.24 in SSE 6.0 mph 10.0 mph 80 % 0.00 in 262 W/m2
13:17 47.1 °F 41.6 °F 30.24 in SSE 6.0 mph 10.0 mph 81 % 0.00 in 288 W/m2
13:22 47.1 °F 41.6 °F 30.24 in South 6.0 mph 10.0 mph 81 % 0.00 in 294 W/m2
13:27 47.1 °F 41.3 °F 30.24 in South 5.0 mph 10.0 mph 80 % 0.00 in 334 W/m2
13:32 47.5 °F 41.6 °F 30.24 in SSE 6.0 mph 11.0 mph 80 % 0.00 in 306 W/m2
13:37 47.5 °F 41.6 °F 30.24 in SSE 5.0 mph 11.0 mph 80 % 0.00 in 288 W/m2
13:42 47.7 °F 41.5 °F 30.23 in SSE 5.0 mph 14.0 mph 79 % 0.00 in 274 W/m2
13:47 47.7 °F 41.5 °F 30.23 in SSE 5.0 mph 14.0 mph 79 % 0.00 in 244 W/m2
13:52 47.8 °F 41.6 °F 30.23 in SE 4.0 mph 8.0 mph 79 % 0.00 in 279 W/m2
13:57 48.2 °F 42.0 °F 30.23 in SE 3.0 mph 8.0 mph 79 % 0.00 in 292 W/m2
14:02 48.4 °F 42.2 °F 30.22 in SE 3.0 mph 7.0 mph 79 % 0.00 in 327 W/m2
14:07 48.6 °F 42.3 °F 30.22 in SE 4.0 mph 9.0 mph 79 % 0.00 in 341 W/m2
14:12 48.7 °F 42.2 °F 30.22 in SE 4.0 mph 9.0 mph 78 % 0.00 in 374 W/m2
14:17 48.6 °F 42.0 °F 30.22 in SE 5.0 mph 9.0 mph 78 % 0.00 in 308 W/m2
14:22 48.4 °F 41.8 °F 30.22 in SE 5.0 mph 8.0 mph 78 % 0.00 in 302 W/m2
14:27 48.4 °F 42.5 °F 30.22 in SSE 4.0 mph 8.0 mph 80 % 0.00 in 313 W/m2
14:32 48.4 °F 42.2 °F 30.22 in SE 5.0 mph 11.0 mph 79 % 0.00 in 325 W/m2
14:37 48.4 °F 42.2 °F 30.21 in SE 5.0 mph 11.0 mph 79 % 0.00 in 339 W/m2
14:42 48.6 °F 42.3 °F 30.21 in SSE 2.0 mph 6.0 mph 79 % 0.00 in 348 W/m2
14:47 48.7 °F 42.5 °F 30.21 in SE 1.0 mph 5.0 mph 79 % 0.00 in 512 W/m2
14:52 49.1 °F 42.9 °F 30.20 in ENE 2.0 mph 6.0 mph 79 % 0.00 in 352 W/m2
14:57 49.3 °F 43.0 °F 30.20 in ENE 3.0 mph 7.0 mph 79 % 0.00 in 290 W/m2
15:02 49.5 °F 42.9 °F 30.20 in ENE 4.0 mph 7.0 mph 78 % 0.00 in 309 W/m2
15:07 49.6 °F 43.1 °F 30.20 in East 3.0 mph 6.0 mph 78 % 0.00 in 304 W/m2
15:12 49.6 °F 43.1 °F 30.20 in NE 2.0 mph 6.0 mph 78 % 0.00 in 404 W/m2
15:17 50.2 °F 43.6 °F 30.20 in ENE 3.0 mph 6.0 mph 78 % 0.00 in 322 W/m2
15:22 50.4 °F 43.1 °F 30.19 in East 3.0 mph 6.0 mph 76 % 0.00 in 243 W/m2
15:27 50.5 °F 43.6 °F 30.19 in East 4.0 mph 8.0 mph 77 % 0.00 in 603 W/m2
15:32 51.1 °F 43.8 °F 30.19 in East 3.0 mph 8.0 mph 76 % 0.00 in 547 W/m2
15:37 51.4 °F 44.1 °F 30.19 in ENE 2.0 mph 8.0 mph 76 % 0.00 in 592 W/m2
15:42 51.6 °F 44.0 °F 30.18 in ENE 3.0 mph 8.0 mph 75 % 0.00 in 591 W/m2
15:47 52.2 °F 44.1 °F 30.18 in East 3.0 mph 7.0 mph 74 % 0.00 in 540 W/m2
15:52 52.5 °F 44.1 °F 30.18 in East 3.0 mph 7.0 mph 73 % 0.00 in 533 W/m2
15:57 52.5 °F 44.1 °F 30.18 in ENE 4.0 mph 8.0 mph 73 % 0.00 in 267 W/m2
16:02 52.2 °F 43.8 °F 30.18 in ENE 4.0 mph 8.0 mph 73 % 0.00 in 508 W/m2
16:07 52.2 °F 44.1 °F 30.18 in ENE 3.0 mph 8.0 mph 74 % 0.00 in 459 W/m2
16:12 52.3 °F 44.3 °F 30.18 in ENE 2.0 mph 8.0 mph 74 % 0.00 in 483 W/m2
16:17 52.7 °F 44.3 °F 30.17 in ENE 2.0 mph 6.0 mph 73 % 0.00 in 434 W/m2
16:22 53.1 °F 44.3 °F 30.17 in East 3.0 mph 8.0 mph 72 % 0.00 in 388 W/m2
16:27 53.2 °F 44.1 °F 30.17 in ESE 4.0 mph 9.0 mph 71 % 0.00 in 429 W/m2
16:32 53.2 °F 44.4 °F 30.17 in East 3.0 mph 9.0 mph 72 % 0.00 in 411 W/m2
16:38 53.4 °F 44.2 °F 30.17 in East 3.0 mph 10.0 mph 71 % 0.00 in 411 W/m2
16:43 53.6 °F 44.4 °F 30.17 in East 3.0 mph 10.0 mph 71 % 0.00 in 359 W/m2
16:48 53.8 °F 44.6 °F 30.17 in East 3.0 mph 9.0 mph 71 % 0.00 in 207 W/m2
16:53 53.8 °F 45.0 °F 30.17 in ENE 3.0 mph 11.0 mph 72 % 0.00 in 385 W/m2
16:58 53.8 °F 44.6 °F 30.17 in ENE 3.0 mph 11.0 mph 71 % 0.00 in 188 W/m2
17:03 53.8 °F 44.6 °F 30.17 in ENE 4.0 mph 10.0 mph 71 % 0.00 in 376 W/m2
17:08 53.8 °F 44.6 °F 30.16 in ENE 5.0 mph 10.0 mph 71 % 0.00 in 392 W/m2
17:13 53.4 °F 44.2 °F 30.16 in ENE 5.0 mph 10.0 mph 71 % 0.00 in 279 W/m2
17:18 53.4 °F 44.2 °F 30.16 in East 4.0 mph 9.0 mph 71 % 0.00 in 334 W/m2
17:23 53.8 °F 44.6 °F 30.16 in ENE 3.0 mph 8.0 mph 71 % 0.00 in 295 W/m2
17:28 53.6 °F 44.4 °F 30.16 in East 3.0 mph 7.0 mph 71 % 0.00 in 232 W/m2
17:33 53.8 °F 44.6 °F 30.16 in East 3.0 mph 8.0 mph 71 % 0.00 in 308 W/m2
17:38 53.8 °F 44.2 °F 30.16 in ESE 4.0 mph 11.0 mph 70 % 0.00 in 234 W/m2
17:43 53.8 °F 44.2 °F 30.16 in SE 5.0 mph 11.0 mph 70 % 0.00 in 214 W/m2
17:48 53.8 °F 43.8 °F 30.16 in SE 5.0 mph 9.0 mph 69 % 0.00 in 211 W/m2
17:53 53.8 °F 44.2 °F 30.16 in SE 5.0 mph 9.0 mph 70 % 0.00 in 199 W/m2
17:58 53.6 °F 44.0 °F 30.15 in SE 4.0 mph 8.0 mph 70 % 0.00 in 202 W/m2
18:03 53.6 °F 44.0 °F 30.15 in SE 4.0 mph 8.0 mph 70 % 0.00 in 185 W/m2
18:08 53.4 °F 44.6 °F 30.15 in East 4.0 mph 10.0 mph 72 % 0.00 in 183 W/m2
18:13 53.1 °F 44.6 °F 30.15 in ENE 4.0 mph 10.0 mph 73 % 0.00 in 165 W/m2
18:18 52.5 °F 44.5 °F 30.15 in ENE 5.0 mph 9.0 mph 74 % 0.00 in 141 W/m2
18:23 52.2 °F 44.5 °F 30.15 in ENE 5.0 mph 9.0 mph 75 % 0.00 in 118 W/m2
18:28 51.8 °F 44.5 °F 30.15 in ENE 4.0 mph 9.0 mph 76 % 0.00 in 90 W/m2
18:33 51.4 °F 44.1 °F 30.15 in ENE 4.0 mph 8.0 mph 76 % 0.00 in 63 W/m2
18:38 50.9 °F 43.9 °F 30.14 in ENE 5.0 mph 9.0 mph 77 % 0.00 in 60 W/m2
18:43 50.4 °F 43.8 °F 30.14 in ENE 6.0 mph 9.0 mph 78 % 0.00 in 44 W/m2
18:48 50.0 °F 43.7 °F 30.14 in ENE 6.0 mph 11.0 mph 79 % 0.00 in 47 W/m2
18:53 49.6 °F 43.7 °F 30.14 in ENE 5.0 mph 11.0 mph 80 % 0.00 in 32 W/m2
18:58 49.3 °F 43.4 °F 30.15 in ENE 4.0 mph 10.0 mph 80 % 0.00 in 23 W/m2
19:03 48.9 °F 43.3 °F 30.15 in ENE 3.0 mph 9.0 mph 81 % 0.00 in 18 W/m2
19:08 48.6 °F 43.3 °F 30.15 in ENE 3.0 mph 9.0 mph 82 % 0.00 in 12 W/m2
19:13 48.4 °F 43.1 °F 30.15 in East 2.0 mph 7.0 mph 82 % 0.00 in 11 W/m2
19:18 48.0 °F 43.1 °F 30.16 in ENE 2.0 mph 7.0 mph 83 % 0.00 in 7 W/m2
19:23 47.8 °F 43.2 °F 30.15 in ENE 2.0 mph 7.0 mph 84 % 0.00 in 5 W/m2
19:28 47.7 °F 43.4 °F 30.15 in ENE 4.0 mph 8.0 mph 85 % 0.00 in 0 W/m2
19:33 47.5 °F 43.2 °F 30.15 in ENE 3.0 mph 8.0 mph 85 % 0.00 in 0 W/m2
19:38 47.1 °F 43.1 °F 30.15 in ENE 4.0 mph 7.0 mph 86 % 0.00 in 0 W/m2
19:43 46.9 °F 43.0 °F 30.15 in ENE 4.0 mph 8.0 mph 86 % 0.00 in 0 W/m2
19:48 46.9 °F 43.0 °F 30.16 in ENE 3.0 mph 8.0 mph 86 % 0.00 in 0 W/m2
19:53 46.6 °F 42.6 °F 30.16 in ENE 4.0 mph 11.0 mph 86 % 0.00 in 0 W/m2
19:58 46.4 °F 42.7 °F 30.16 in East 4.0 mph 11.0 mph 87 % 0.00 in 0 W/m2
20:03 46.2 °F 42.6 °F 30.16 in ENE 4.0 mph 9.0 mph 87 % 0.00 in 0 W/m2
20:08 46.0 °F 42.4 °F 30.16 in ENE 4.0 mph 9.0 mph 87 % 0.00 in 0 W/m2
20:13 46.0 °F 42.4 °F 30.17 in ENE 5.0 mph 9.0 mph 87 % 0.00 in 0 W/m2
20:18 45.9 °F 42.2 °F 30.17 in ENE 4.0 mph 9.0 mph 87 % 0.00 in 0 W/m2
20:23 45.7 °F 42.0 °F 30.17 in ENE 4.0 mph 9.0 mph 87 % 0.00 in 0 W/m2
20:28 45.7 °F 42.3 °F 30.17 in ENE 4.0 mph 9.0 mph 88 % 0.00 in 0 W/m2
20:30 45.7 °F 42.3 °F 30.17 in ENE 4.0 mph 9.0 mph 88 % 0.00 in 0 W/m2
20:33 45.7 °F 42.3 °F 30.17 in ENE 4.0 mph 9.0 mph 88 % 0.00 in 0 W/m2
20:34 45.5 °F 42.2 °F 30.17 in ENE 4.0 mph 9.0 mph 88 % 0.00 in 0 W/m2
20:36 45.5 °F 42.2 °F 30.17 in ENE 4.0 mph 10.0 mph 88 % 0.00 in 0 W/m2
20:37 45.5 °F 42.2 °F 30.17 in ENE 4.0 mph 10.0 mph 88 % 0.00 in 0 W/m2
20:38 45.5 °F 42.2 °F 30.16 in ENE 4.0 mph 10.0 mph 88 % 0.00 in 0 W/m2
20:43 45.3 °F 42.0 °F 30.17 in East 4.0 mph 10.0 mph 88 % 0.00 in 0 W/m2
20:48 45.3 °F 42.0 °F 30.17 in East 4.0 mph 8.0 mph 88 % 0.00 in 0 W/m2
20:52 45.3 °F 42.0 °F 30.17 in East 3.0 mph 8.0 mph 88 % 0.00 in 0 W/m2
20:53 45.3 °F 42.0 °F 30.17 in East 4.0 mph 7.0 mph 88 % 0.00 in 0 W/m2
20:54 45.3 °F 42.0 °F 30.17 in East 4.0 mph 7.0 mph 88 % 0.00 in 0 W/m2
20:55 45.3 °F 42.0 °F 30.17 in East 3.0 mph 7.0 mph 88 % 0.00 in 0 W/m2
20:56 45.3 °F 42.0 °F 30.17 in East 3.0 mph 7.0 mph 88 % 0.00 in 0 W/m2
21:01 45.3 °F 42.0 °F 30.17 in East 3.0 mph 8.0 mph 88 % 0.00 in 0 W/m2
21:06 45.5 °F 42.2 °F 30.17 in East 2.0 mph 8.0 mph 88 % 0.00 in 0 W/m2
21:11 45.5 °F 42.2 °F 30.17 in East 2.0 mph 6.0 mph 88 % 0.00 in 0 W/m2
21:16 45.5 °F 41.9 °F 30.18 in East 2.0 mph 8.0 mph 87 % 0.00 in 0 W/m2
21:21 45.5 °F 42.2 °F 30.18 in ESE 2.0 mph 8.0 mph 88 % 0.00 in 0 W/m2
21:26 45.5 °F 42.2 °F 30.18 in East 2.0 mph 6.0 mph 88 % 0.00 in 0 W/m2
21:31 45.7 °F 42.3 °F 30.18 in East 1.0 mph 6.0 mph 88 % 0.00 in 0 W/m2
21:36 45.7 °F 42.3 °F 30.18 in East 2.0 mph 7.0 mph 88 % 0.00 in 0 W/m2
21:41 45.7 °F 42.3 °F 30.18 in East 3.0 mph 7.0 mph 88 % 0.00 in 0 W/m2
21:46 45.7 °F 42.3 °F 30.18 in ESE 2.0 mph 7.0 mph 88 % 0.00 in 0 W/m2
21:49 45.7 °F 42.3 °F 30.17 in ESE 2.0 mph 6.0 mph 88 % 0.00 in 0 W/m2
21:54 45.7 °F 42.3 °F 30.18 in ESE 4.0 mph 8.0 mph 88 % 0.00 in 0 W/m2
21:59 45.7 °F 42.3 °F 30.17 in ESE 4.0 mph 8.0 mph 88 % 0.00 in 0 W/m2
22:04 45.7 °F 42.3 °F 30.18 in ESE 4.0 mph 8.0 mph 88 % 0.00 in 0 W/m2
22:10 45.9 °F 42.5 °F 30.18 in ESE 4.0 mph 9.0 mph 88 % 0.00 in 0 W/m2
22:15 45.9 °F 42.5 °F 30.18 in ESE 4.0 mph 9.0 mph 88 % 0.00 in 0 W/m2
22:20 45.7 °F 42.3 °F 30.18 in ESE 5.0 mph 11.0 mph 88 % 0.00 in 0 W/m2
22:25 45.7 °F 42.3 °F 30.17 in ESE 6.0 mph 11.0 mph 88 % 0.00 in 0 W/m2
22:30 45.7 °F 42.3 °F 30.17 in ESE 5.0 mph 10.0 mph 88 % 0.00 in 0 W/m2
22:35 45.7 °F 42.3 °F 30.17 in SE 5.0 mph 10.0 mph 88 % 0.00 in 0 W/m2
22:40 45.5 °F 42.2 °F 30.17 in ESE 4.0 mph 9.0 mph 88 % 0.00 in 0 W/m2
22:45 45.3 °F 42.0 °F 30.17 in ESE 5.0 mph 10.0 mph 88 % 0.00 in 0 W/m2
22:50 45.3 °F 42.0 °F 30.17 in ESE 6.0 mph 10.0 mph 88 % 0.00 in 0 W/m2
22:55 45.3 °F 42.0 °F 30.17 in ESE 4.0 mph 8.0 mph 88 % 0.00 in 0 W/m2
23:00 45.3 °F 42.0 °F 30.16 in ESE 4.0 mph 8.0 mph 88 % 0.00 in 0 W/m2
23:05 45.1 °F 41.5 °F 30.16 in ESE 6.0 mph 10.0 mph 87 % 0.00 in 0 W/m2
23:10 45.1 °F 41.5 °F 30.16 in ESE 6.0 mph 10.0 mph 87 % 0.00 in 0 W/m2
23:15 45.1 °F 41.5 °F 30.16 in ESE 6.0 mph 9.0 mph 87 % 0.00 in 0 W/m2
23:20 45.0 °F 41.3 °F 30.16 in ESE 5.0 mph 10.0 mph 87 % 0.00 in 0 W/m2
23:25 45.0 °F 41.6 °F 30.16 in ESE 5.0 mph 10.0 mph 88 % 0.00 in 0 W/m2
23:30 45.0 °F 41.6 °F 30.16 in ESE 5.0 mph 8.0 mph 88 % 0.00 in 0 W/m2
23:35 45.0 °F 41.6 °F 30.16 in ESE 3.0 mph 7.0 mph 88 % 0.00 in 0 W/m2
23:40 45.0 °F 41.6 °F 30.16 in East 3.0 mph 7.0 mph 88 % 0.00 in 0 W/m2
23:45 44.8 °F 41.4 °F 30.16 in ESE 3.0 mph 7.0 mph 88 % 0.00 in 0 W/m2
23:50 44.8 °F 41.4 °F 30.16 in East 2.0 mph 7.0 mph 88 % 0.00 in 0 W/m2
23:55 44.6 °F 41.3 °F 30.16 in East 3.0 mph 7.0 mph 88 % 0.00 in 0 W/m2
Delerius-Weather
Compliments of Weather Underground - 2.25 mb

Data updates at regular intervals.